Time;durP1;ratioP1;P1;durP2;ratioP2;P2;SDS_P1;SDS_P2;PMS_P1;PMS_P2;Temp;Humidity;BMP_temperature;BMP_pressure;BME280_temperature;BME280_humidity;BME280_pressure;Samples;Min_cycle;Max_cycle;Signal;HPM_P1;HPM_P2
2023/06/21 00:02:28;;;;;;;28.95;22.17;;;;;;;;;;8390222;28;20128;-96
2023/06/21 00:06:35;;;;;;;28.55;23.23;;;;;;;;;;8349418;28;20168;-95
2023/06/21 00:10:41;;;;;;;28.45;23.52;;;;;;;;;;8338585;23;20409;-96
2023/06/21 00:15:06;;;;;;;29.98;22.85;;;;;;;;;;8345747;28;20424;-96
2023/06/21 00:19:19;;;;;;;27.40;22.00;;;;;;;;;;8357012;28;20393;-96
2023/06/21 00:23:24;;;;;;;27.27;21.48;;;;;;;;;;8382395;22;20053;-96
2023/06/21 00:27:37;;;;;;;22.38;19.98;;;;;;;;;;8384650;22;20032;-96
2023/06/21 00:31:42;;;;;;;27.10;22.73;;;;;;;;;;8408956;28;20067;-96
2023/06/21 00:40:21;;;;;;;28.88;21.63;;;;;;;;;;8608175;22;20413;-96
2023/06/21 00:44:52;;;;;;;25.08;21.92;;;;;;;;;;8332475;28;20076;-96
2023/06/21 00:53:16;;;;;;;27.90;24.05;;;;;;;;;;8414675;22;20120;-96
2023/06/21 00:57:21;;;;;;;29.27;23.75;;;;;;;;;;8370609;28;20392;-96
2023/06/21 01:01:26;;;;;;;25.42;22.02;;;;;;;;;;8375574;28;20053;-96
2023/06/21 01:05:52;;;;;;;25.00;21.67;;;;;;;;;;8399153;28;20082;-96
2023/06/21 01:10:14;;;;;;;26.60;22.23;;;;;;;;;;8394876;28;20052;-96
2023/06/21 01:14:39;;;;;;;;;;;;;;;;;;8379488;28;20052;-96
2023/06/21 01:18:46;;;;;;;23.58;19.52;;;;;;;;;;8363369;28;19927;-96
2023/06/21 01:23:13;;;;;;;;;;;;;;;;;;;;;
2023/06/21 01:27:56;;;;;;;25.08;21.02;;;;;;;;;;8370421;23;20061;-96
2023/06/21 01:37:52;;;;;;;24.52;19.65;;;;;;;;;;8316794;22;20405;-96
2023/06/21 01:42:30;;;;;;;;;;;;;;;;;;;;;
2023/06/21 01:47:03;;;;;;;20.85;18.25;;;;;;;;;;8366804;28;20056;-96
2023/06/21 01:55:35;;;;;;;23.73;19.35;;;;;;;;;;8348018;28;20503;-96
2023/06/21 01:59:43;;;;;;;24.40;19.88;;;;;;;;;;8353159;28;20056;-96
2023/06/21 02:04:05;;;;;;;26.60;21.70;;;;;;;;;;8354335;28;20067;-96
2023/06/21 02:08:15;;;;;;;24.92;20.15;;;;;;;;;;8356521;28;20501;-96
2023/06/21 02:13:00;;;;;;;23.08;20.58;;;;;;;;;;8365343;28;20126;-96
2023/06/21 02:17:22;;;;;;;21.77;19.13;;;;;;;;;;8354907;28;20063;-96
2023/06/21 02:21:29;;;;;;;27.02;20.77;;;;;;;;;;8377260;28;20507;-96
2023/06/21 02:25:47;;;;;;;25.20;19.77;;;;;;;;;;8360676;28;20053;-96
2023/06/21 02:29:52;;;;;;;43.42;24.60;;;;;;;;;;8345616;28;20068;-96
2023/06/21 02:33:56;;;;;;;31.95;24.45;;;;;;;;;;8376143;28;20053;-96
2023/06/21 02:38:01;;;;;;;28.15;23.52;;;;;;;;;;8346251;28;20088;-96
2023/06/21 02:42:06;;;;;;;26.75;22.33;;;;;;;;;;8350138;22;20057;-96
2023/06/21 02:46:13;;;;;;;26.92;22.45;;;;;;;;;;8355697;28;20052;-96
2023/06/21 02:50:18;;;;;;;22.67;20.13;;;;;;;;;;8323367;28;20060;-96
2023/06/21 02:54:28;;;;;;;22.48;18.58;;;;;;;;;;8310654;28;20062;-96
2023/06/21 02:58:47;;;;;;;22.25;18.88;;;;;;;;;;8326745;28;20156;-96
2023/06/21 03:03:10;;;;;;;21.23;16.70;;;;;;;;;;8341943;28;20111;-96
2023/06/21 03:07:17;;;;;;;20.15;16.20;;;;;;;;;;8416040;23;20109;-96
2023/06/21 03:11:27;;;;;;;19.02;16.58;;;;;;;;;;8410079;28;20052;-96
2023/06/21 03:15:30;;;;;;;18.33;14.95;;;;;;;;;;8421027;28;20082;-96
2023/06/21 03:19:35;;;;;;;17.88;14.50;;;;;;;;;;8422336;28;20075;-96
2023/06/21 03:23:49;;;;;;;20.60;17.20;;;;;;;;;;8424200;28;20051;-96
2023/06/21 03:27:59;;;;;;;26.40;23.75;;;;;;;;;;8406221;28;20568;-96
2023/06/21 03:32:02;;;;;;;21.48;18.52;;;;;;;;;;8410012;28;20080;-96
2023/06/21 03:36:11;;;;;;;20.35;16.50;;;;;;;;;;8423596;28;20052;-96
2023/06/21 03:40:16;;;;;;;18.75;16.35;;;;;;;;;;8402957;28;20056;-96
2023/06/21 03:44:20;;;;;;;22.38;17.08;;;;;;;;;;8393215;28;20118;-96
2023/06/21 03:48:24;;;;;;;20.35;17.17;;;;;;;;;;8410023;28;20063;-96
2023/06/21 03:52:29;;;;;;;18.05;15.82;;;;;;;;;;8436014;28;20061;-96
2023/06/21 03:56:34;;;;;;;20.35;16.83;;;;;;;;;;8401000;28;20079;-96
2023/06/21 04:00:41;;;;;;;20.95;16.35;;;;;;;;;;8421023;28;20052;-96
2023/06/21 04:04:45;;;;;;;20.40;18.17;;;;;;;;;;8406982;28;20065;-96
2023/06/21 04:08:54;;;;;;;18.67;15.02;;;;;;;;;;8390114;28;20060;-96
2023/06/21 04:13:06;;;;;;;17.38;15.45;;;;;;;;;;8425619;28;20089;-96
2023/06/21 04:17:23;;;;;;;18.42;15.57;;;;;;;;;;8406393;28;20082;-96
2023/06/21 04:26:16;;;;;;;15.93;13.27;;;;;;;;;;8386637;22;20063;-96
2023/06/21 04:30:58;;;;;;;14.93;12.73;;;;;;;;;;8374806;28;20053;-96
2023/06/21 04:35:15;;;;;;;15.32;11.98;;;;;;;;;;8391532;28;20075;-96
2023/06/21 04:43:35;;;;;;;13.95;12.25;;;;;;;;;;8392189;22;20059;-96
2023/06/21 04:47:57;;;;;;;13.88;11.88;;;;;;;;;;8370416;28;20064;-95
2023/06/21 04:52:25;;;;;;;17.37;11.83;;;;;;;;;;8377146;28;20091;-93
2023/06/21 04:56:28;;;;;;;23.05;12.13;;;;;;;;;;8368347;28;20298;-95
2023/06/21 05:00:34;;;;;;;19.42;11.43;;;;;;;;;;8370492;28;20520;-95
2023/06/21 05:04:37;;;;;;;14.40;10.90;;;;;;;;;;8382461;23;20099;-95
2023/06/21 05:08:41;;;;;;;18.73;10.82;;;;;;;;;;8359769;28;20099;-93
2023/06/21 05:12:45;;;;;;;13.07;9.40;;;;;;;;;;8360283;28;20481;-95
2023/06/21 05:17:15;;;;;;;18.23;9.82;;;;;;;;;;8368995;28;20155;-96
2023/06/21 05:21:18;;;;;;;17.35;9.73;;;;;;;;;;8373142;28;20053;-95
2023/06/21 05:25:22;;;;;;;18.77;9.20;;;;;;;;;;8368996;28;20053;-94
2023/06/21 05:29:25;;;;;;;15.32;8.65;;;;;;;;;;8398638;28;20064;-96
2023/06/21 05:33:48;;;;;;;12.00;8.52;;;;;;;;;;8393758;28;20056;-95
2023/06/21 05:37:53;;;;;;;11.75;8.60;;;;;;;;;;8376950;28;20067;-95
2023/06/21 05:41:56;;;;;;;10.88;8.40;;;;;;;;;;8401801;28;20055;-96
2023/06/21 05:45:59;;;;;;;10.73;8.02;;;;;;;;;;8370058;28;20103;-96
2023/06/21 05:50:24;;;;;;;10.70;8.00;;;;;;;;;;8377149;28;20427;-96
2023/06/21 05:54:30;;;;;;;10.10;7.50;;;;;;;;;;8392025;28;20062;-96
2023/06/21 05:58:57;;;;;;;8.82;7.30;;;;;;;;;;8381197;28;20053;-96
2023/06/21 06:03:02;;;;;;;18.55;16.65;;;;;;;;;;8382984;28;20065;-95
2023/06/21 06:07:29;;;;;;;13.30;7.38;;;;;;;;;;8350586;28;20060;-96
2023/06/21 06:11:32;;;;;;;14.70;9.68;;;;;;;;;;8348014;23;20278;-96
2023/06/21 06:15:35;;;;;;;8.32;6.97;;;;;;;;;;8341526;28;20472;-95
2023/06/21 06:19:39;;;;;;;10.00;8.35;;;;;;;;;;8341697;28;20496;-96
2023/06/21 06:24:05;;;;;;;24.55;19.08;;;;;;;;;;8336388;28;20064;-95
2023/06/21 06:32:42;;;;;;;10.80;7.40;;;;;;;;;;8335208;23;20461;-94
2023/06/21 06:36:45;;;;;;;15.52;10.88;;;;;;;;;;8328543;28;20540;-94
2023/06/21 06:41:15;;;;;;;12.40;9.45;;;;;;;;;;8335309;28;20129;-96
2023/06/21 06:45:24;;;;;;;11.02;8.63;;;;;;;;;;8366588;23;20053;-95
2023/06/21 06:49:32;;;;;;;13.50;10.27;;;;;;;;;;8368295;23;20140;-94
2023/06/21 06:54:04;;;;;;;12.13;8.50;;;;;;;;;;8387129;23;20073;-96
2023/06/21 06:58:09;;;;;;;14.45;9.00;;;;;;;;;;8363416;28;20057;-95
2023/06/21 07:02:12;;;;;;;11.32;7.95;;;;;;;;;;8342234;28;20144;-94
2023/06/21 07:06:25;;;;;;;10.07;7.47;;;;;;;;;;8357697;28;20052;-96
2023/06/21 07:10:28;;;;;;;9.45;7.10;;;;;;;;;;8366663;28;20052;-96
2023/06/21 07:14:38;;;;;;;11.70;8.13;;;;;;;;;;8365653;28;20155;-95
2023/06/21 07:23:19;;;;;;;7.75;6.68;;;;;;;;;;8395322;23;20057;-95
2023/06/21 07:31:46;;;;;;;11.18;8.30;;;;;;;;;;8360865;28;20052;-95
2023/06/21 07:35:49;;;;;;;7.90;6.72;;;;;;;;;;8345189;28;20061;-95
2023/06/21 07:39:52;;;;;;;9.73;7.30;;;;;;;;;;8351020;28;20107;-94
2023/06/21 07:43:56;;;;;;;9.55;8.55;;;;;;;;;;8352458;28;20485;-95
2023/06/21 07:48:07;;;;;;;11.90;7.78;;;;;;;;;;8365425;28;20132;-95
2023/06/21 07:52:10;;;;;;;12.80;10.20;;;;;;;;;;8346708;28;20053;-95
2023/06/21 07:56:16;;;;;;;14.35;9.05;;;;;;;;;;8359453;28;20111;-93
2023/06/21 08:00:25;;;;;;;12.38;7.35;;;;;;;;;;8387359;23;20068;-95
2023/06/21 08:04:30;;;;;;;14.30;7.95;;;;;;;;;;8365010;28;20052;-95
2023/06/21 08:08:42;;;;;;;12.02;10.65;;;;;;;;;;8358654;28;20471;-95
2023/06/21 08:12:45;;;;;;;8.73;6.78;;;;;;;;;;8365860;28;20044;-95
2023/06/21 08:16:51;;;;;;;10.32;6.97;;;;;;;;;;8346560;28;20052;-94
2023/06/21 08:20:56;;;;;;;9.60;7.30;;;;;;;;;;8365101;28;20077;-95
2023/06/21 08:25:05;;;;;;;10.85;7.32;;;;;;;;;;8364025;28;20556;-96
2023/06/21 08:29:09;;;;;;;8.70;7.60;;;;;;;;;;8364050;28;20099;-94
2023/06/21 08:33:12;;;;;;;11.77;10.52;;;;;;;;;;8363684;28;20071;-95
2023/06/21 08:37:21;;;;;;;7.72;6.88;;;;;;;;;;8363884;28;20408;-95
2023/06/21 08:41:30;;;;;;;10.27;7.07;;;;;;;;;;8363323;28;20103;-95
2023/06/21 08:45:33;;;;;;;9.57;6.82;;;;;;;;;;8364834;28;20045;-94
2023/06/21 08:49:41;;;;;;;11.13;7.80;;;;;;;;;;8345986;28;20081;-94
2023/06/21 08:53:50;;;;;;;8.98;7.20;;;;;;;;;;8363154;28;20048;-95
2023/06/21 09:06:59;;;;;;;8.75;7.80;;;;;;;;;;8362929;28;20052;-95
2023/06/21 09:11:05;;;;;;;13.88;8.90;;;;;;;;;;8363054;28;20080;-96
2023/06/21 09:15:17;;;;;;;10.13;8.05;;;;;;;;;;8362869;28;20110;-95
2023/06/21 09:19:21;;;;;;;9.95;8.95;;;;;;;;;;8363247;28;20053;-95
2023/06/21 09:23:24;;;;;;;10.60;8.90;;;;;;;;;;8363048;28;20049;-94
2023/06/21 09:27:39;;;;;;;9.70;8.63;;;;;;;;;;8368891;22;20060;-95
2023/06/21 09:31:42;;;;;;;10.07;8.30;;;;;;;;;;8413857;22;20135;-94
2023/06/21 09:35:45;;;;;;;9.00;8.10;;;;;;;;;;8395619;28;20049;-94
2023/06/21 09:40:01;;;;;;;18.33;9.70;;;;;;;;;;8403628;28;20064;-94
2023/06/21 09:44:12;;;;;;;10.48;9.10;;;;;;;;;;8398948;28;20443;-94
2023/06/21 09:48:16;;;;;;;8.85;7.90;;;;;;;;;;8419528;28;20052;-94
2023/06/21 09:52:23;;;;;;;9.13;8.10;;;;;;;;;;8402550;28;20048;-95
2023/06/21 09:56:33;;;;;;;11.25;8.82;;;;;;;;;;8415604;28;20067;-96
2023/06/21 10:00:46;;;;;;;;;;;;;;;;;;8410590;28;20048;-95
2023/06/21 10:04:55;;;;;;;8.23;7.40;;;;;;;;;;8428431;28;19938;-95
2023/06/21 10:09:00;;;;;;;11.80;7.82;;;;;;;;;;8428556;28;20052;-93
2023/06/21 10:13:03;;;;;;;15.38;8.57;;;;;;;;;;8401090;28;20083;-94
2023/06/21 10:22:09;;;;;;;;;;;;;;;;;;8291973;28;20057;-95
2023/06/21 10:26:31;;;;;;;13.77;11.10;;;;;;;;;;8299457;28;20342;-95
2023/06/21 10:30:56;;;;;;;8.02;7.22;;;;;;;;;;8284952;28;20053;-94
2023/06/21 10:39:08;;;;;;;24.05;17.60;;;;;;;;;;8362717;23;20049;-95
2023/06/21 10:43:14;;;;;;;40.80;19.10;;;;;;;;;;8359968;28;20064;-94
2023/06/21 10:47:39;;;;;;;19.55;11.40;;;;;;;;;;8357772;28;20390;-94
2023/06/21 10:51:56;;;;;;;9.45;7.88;;;;;;;;;;8350408;28;20052;-95
2023/06/21 11:05:16;;;;;;;9.35;7.55;;;;;;;;;;8328210;23;20069;-95
2023/06/21 11:09:24;;;;;;;9.90;8.48;;;;;;;;;;8341445;28;20574;-96
2023/06/21 11:13:53;;;;;;;23.88;11.10;;;;;;;;;;8362784;28;20098;-96
2023/06/21 11:18:21;;;;;;;26.43;14.67;;;;;;;;;;8363607;28;20447;-96
2023/06/21 11:22:28;;;;;;;11.88;9.00;;;;;;;;;;8344882;28;20067;-96
2023/06/21 11:26:58;;;;;;;12.10;8.00;;;;;;;;;;8355756;28;20497;-96
2023/06/21 11:31:14;;;;;;;12.40;8.32;;;;;;;;;;8353317;28;20049;-94
2023/06/21 11:35:19;;;;;;;11.55;8.52;;;;;;;;;;8350529;28;20144;-95
2023/06/21 11:39:28;;;;;;;12.95;8.75;;;;;;;;;;8363550;28;20543;-95
2023/06/21 11:43:36;;;;;;;10.27;8.57;;;;;;;;;;8365679;28;20480;-95
2023/06/21 11:47:58;;;;;;;9.60;8.13;;;;;;;;;;8365283;28;20060;-94
2023/06/21 11:52:14;;;;;;;23.77;21.20;;;;;;;;;;8365755;28;20057;-96
2023/06/21 11:56:19;;;;;;;11.77;8.40;;;;;;;;;;8365158;28;20083;-94
2023/06/21 12:00:22;;;;;;;12.77;8.30;;;;;;;;;;8349017;28;20164;-94
2023/06/21 12:04:26;;;;;;;11.43;9.20;;;;;;;;;;8360628;28;20456;-95
2023/06/21 12:08:33;;;;;;;13.82;10.23;;;;;;;;;;8362193;28;20068;-94
2023/06/21 12:12:36;;;;;;;11.43;8.43;;;;;;;;;;8358278;28;20412;-94
2023/06/21 12:17:06;;;;;;;13.07;9.02;;;;;;;;;;8371361;28;20459;-96
2023/06/21 12:21:10;;;;;;;11.85;9.50;;;;;;;;;;8393785;28;20550;-96
2023/06/21 12:25:19;;;;;;;16.38;9.57;;;;;;;;;;8375682;28;20136;-96
2023/06/21 12:30:03;;;;;;;10.52;9.40;;;;;;;;;;8387749;22;20140;-96
2023/06/21 12:34:17;;;;;;;12.90;9.20;;;;;;;;;;8342055;28;20057;-94
2023/06/21 12:38:21;;;;;;;14.32;9.90;;;;;;;;;;8322792;22;20084;-95
2023/06/21 12:42:32;;;;;;;13.13;9.45;;;;;;;;;;8361370;28;20439;-95
2023/06/21 12:46:53;;;;;;;10.93;9.80;;;;;;;;;;8370212;22;20109;-95
2023/06/21 12:50:57;;;;;;;10.45;9.35;;;;;;;;;;8350184;28;20061;-94
2023/06/21 12:55:01;;;;;;;10.68;9.30;;;;;;;;;;8369934;22;20128;-95
2023/06/21 12:59:09;;;;;;;11.77;10.30;;;;;;;;;;8362596;28;20145;-92
2023/06/21 13:07:37;;;;;;;11.35;9.52;;;;;;;;;;8335394;23;20080;-94
2023/06/21 13:16:17;;;;;;;10.45;9.27;;;;;;;;;;8770868;22;20038;-95
2023/06/21 13:20:20;;;;;;;11.35;10.10;;;;;;;;;;8304356;28;20473;-94
2023/06/21 13:24:35;;;;;;;11.23;10.02;;;;;;;;;;8329664;22;20686;-94
2023/06/21 13:28:50;;;;;;;;;;;;;;;;;;;;;
2023/06/21 13:33:46;;;;;;;15.70;11.50;;;;;;;;;;8336424;23;20052;-96
2023/06/21 13:37:57;;;;;;;13.52;11.75;;;;;;;;;;8208692;28;20559;-95
2023/06/21 13:42:00;;;;;;;14.52;11.77;;;;;;;;;;8211803;28;20058;-95
2023/06/21 13:46:03;;;;;;;15.35;12.02;;;;;;;;;;8208547;28;20082;-94
2023/06/21 13:50:07;;;;;;;14.70;12.75;;;;;;;;;;8233862;28;20050;-95
2023/06/21 13:54:15;;;;;;;16.88;14.75;;;;;;;;;;8231210;28;20378;-94
2023/06/21 13:58:40;;;;;;;17.30;14.98;;;;;;;;;;8225618;28;20076;-96
2023/06/21 14:02:45;;;;;;;19.58;15.38;;;;;;;;;;8212901;28;20082;-96
2023/06/21 14:06:55;;;;;;;20.58;15.75;;;;;;;;;;8250810;23;20057;-95
2023/06/21 14:11:02;;;;;;;17.83;15.93;;;;;;;;;;8306256;23;20062;-95
2023/06/21 14:15:06;;;;;;;19.08;16.45;;;;;;;;;;8316849;28;20053;-95
2023/06/21 14:19:12;;;;;;;18.77;16.33;;;;;;;;;;8301502;28;20062;-94
2023/06/21 14:23:15;;;;;;;19.92;15.75;;;;;;;;;;8304386;28;20058;-96
2023/06/21 14:31:20;;;;;;;19.55;17.13;;;;;;;;;;8302738;23;20062;-94
2023/06/21 14:35:23;;;;;;;20.20;17.25;;;;;;;;;;8297841;28;20050;-96
2023/06/21 14:43:37;;;;;;;22.08;17.88;;;;;;;;;;8927919;23;20137;-96
2023/06/21 14:47:44;;;;;;;19.05;17.00;;;;;;;;;;8302977;28;20050;-96
2023/06/21 14:56:11;;;;;;;16.83;14.73;;;;;;;;;;8291869;28;20046;-95
2023/06/21 15:00:15;;;;;;;14.32;11.93;;;;;;;;;;8299854;28;20133;-96
2023/06/21 15:04:20;;;;;;;15.25;13.35;;;;;;;;;;8290199;28;20118;-96
2023/06/21 15:08:23;;;;;;;16.92;14.02;;;;;;;;;;8321671;23;20053;-96
2023/06/21 15:12:42;;;;;;;18.58;13.90;;;;;;;;;;8320108;28;20065;-96
2023/06/21 15:16:50;;;;;;;13.80;11.10;;;;;;;;;;8462628;23;20510;-96
2023/06/21 15:26:22;;;;;;;14.88;11.95;;;;;;;;;;8256183;28;20047;-95
2023/06/21 15:30:32;;;;;;;16.58;11.88;;;;;;;;;;8265274;28;20046;-94
2023/06/21 15:34:45;;;;;;;14.45;11.68;;;;;;;;;;8268620;28;20065;-94
2023/06/21 15:39:38;;;;;;;14.05;12.02;;;;;;;;;;8262230;23;20061;-96
2023/06/21 16:48:18;;;;;;;22.73;17.25;;;;;;;;;;8893554;23;20153;-96
2023/06/21 16:52:28;;;;;;;20.25;17.30;;;;;;;;;;8266580;28;20051;-96
2023/06/21 16:56:31;;;;;;;24.52;20.65;;;;;;;;;;8296148;28;20053;-96
2023/06/21 17:00:34;;;;;;;23.10;18.38;;;;;;;;;;8248654;28;20070;-96
2023/06/21 17:10:04;;;;;;;21.15;16.42;;;;;;;;;;884915;26;20323;-96
2023/06/21 17:14:09;;;;;;;21.00;16.58;;;;;;;;;;8250674;28;20073;-95
2023/06/21 17:18:12;;;;;;;20.52;15.57;;;;;;;;;;8243017;23;20474;-95
2023/06/21 17:22:30;;;;;;;18.58;13.25;;;;;;;;;;8245019;28;20399;-96
2023/06/21 17:30:54;;;;;;;16.13;13.55;;;;;;;;;;8223140;28;20597;-95
2023/06/21 17:35:15;;;;;;;14.65;11.63;;;;;;;;;;8231480;28;20046;-95
2023/06/21 17:39:19;;;;;;;15.00;11.20;;;;;;;;;;8248895;28;20406;-96
2023/06/21 17:43:22;;;;;;;12.45;10.35;;;;;;;;;;8252008;23;20074;-95
2023/06/21 17:47:27;;;;;;;15.80;11.20;;;;;;;;;;8269181;28;20579;-95
2023/06/21 17:51:30;;;;;;;14.40;10.80;;;;;;;;;;8284455;23;20506;-95
2023/06/21 18:00:09;;;;;;;15.98;10.63;;;;;;;;;;8724861;23;20050;-93
2023/06/21 18:04:46;;;;;;;14.80;11.52;;;;;;;;;;8281782;23;20110;-96
2023/06/21 18:09:36;;;;;;;16.85;13.85;;;;;;;;;;8175824;23;20063;-93
2023/06/21 18:13:58;;;;;;;17.67;13.85;;;;;;;;;;8267375;23;20248;-95
2023/06/21 18:18:53;;;;;;;18.67;14.52;;;;;;;;;;4704319;23;20461;-95
2023/06/21 18:22:56;;;;;;;33.30;27.25;;;;;;;;;;8262226;23;20058;-96
2023/06/21 18:27:01;;;;;;;29.92;21.48;;;;;;;;;;8282725;23;20057;-96
2023/06/21 18:31:05;;;;;;;73.78;44.58;;;;;;;;;;8260752;28;20062;-96
2023/06/21 18:35:39;;;;;;;21.63;17.33;;;;;;;;;;8280364;28;20136;-95
2023/06/21 18:44:20;;;;;;;22.20;15.90;;;;;;;;;;8272616;28;20058;-95
2023/06/21 18:48:34;;;;;;;23.30;15.73;;;;;;;;;;8288323;28;20468;-94
2023/06/21 18:52:37;;;;;;;22.50;17.85;;;;;;;;;;8281389;28;20062;-95
2023/06/21 19:02:18;;;;;;;63.60;29.02;;;;;;;;;;8272309;28;20054;-96
2023/06/21 19:06:26;;;;;;;29.27;20.80;;;;;;;;;;8286436;28;20057;-96
2023/06/21 19:10:29;;;;;;;27.05;18.10;;;;;;;;;;8280047;28;20081;-96
2023/06/21 19:14:34;;;;;;;24.10;18.75;;;;;;;;;;8274891;28;20085;-95
2023/06/21 19:18:39;;;;;;;27.05;18.83;;;;;;;;;;8287897;28;20045;-96
2023/06/21 19:22:49;;;;;;;33.42;21.67;;;;;;;;;;8282008;28;20105;-96
2023/06/21 19:26:54;;;;;;;61.63;34.05;;;;;;;;;;8274487;28;20054;-96
2023/06/21 19:31:00;;;;;;;49.45;30.45;;;;;;;;;;8257887;28;20137;-94
2023/06/21 19:35:05;;;;;;;32.40;22.38;;;;;;;;;;8287089;28;20509;-95
2023/06/21 19:39:15;;;;;;;39.75;27.13;;;;;;;;;;8278236;28;20087;-95
2023/06/21 19:47:40;;;;;;;33.10;22.33;;;;;;;;;;8267281;28;20080;-95
2023/06/21 19:51:45;;;;;;;31.10;21.08;;;;;;;;;;8294644;28;20069;-96
2023/06/21 19:55:50;;;;;;;29.80;21.33;;;;;;;;;;8277581;28;20123;-96
2023/06/21 19:59:56;;;;;;;29.98;22.08;;;;;;;;;;8295631;28;20054;-96
2023/06/21 20:03:59;;;;;;;31.23;22.08;;;;;;;;;;8291251;28;20045;-96
2023/06/21 20:08:04;;;;;;;31.48;21.02;;;;;;;;;;8301024;28;20061;-96
2023/06/21 20:12:11;;;;;;;29.17;20.92;;;;;;;;;;8280791;28;20086;-96
2023/06/21 20:16:15;;;;;;;30.95;22.10;;;;;;;;;;8284927;28;20062;-96
2023/06/21 20:20:23;;;;;;;31.55;20.92;;;;;;;;;;8256509;28;20070;-96
2023/06/21 20:24:28;;;;;;;34.15;22.52;;;;;;;;;;8281749;28;20133;-96
2023/06/21 20:28:35;;;;;;;36.15;23.45;;;;;;;;;;8285827;28;20105;-96
2023/06/21 20:32:41;;;;;;;29.88;21.58;;;;;;;;;;8269102;28;20058;-96
2023/06/21 20:36:47;;;;;;;32.63;21.75;;;;;;;;;;8262253;28;20445;-96
2023/06/21 20:40:58;;;;;;;44.88;26.45;;;;;;;;;;8288868;28;20077;-95
2023/06/21 20:45:21;;;;;;;51.40;26.65;;;;;;;;;;8282984;28;20085;-95
2023/06/21 20:49:30;;;;;;;83.40;36.95;;;;;;;;;;8271083;28;20133;-96
2023/06/21 20:53:41;;;;;;;44.22;25.13;;;;;;;;;;8303222;28;20050;-96
2023/06/21 20:57:47;;;;;;;35.60;24.00;;;;;;;;;;8252299;28;20066;-96
2023/06/21 21:01:57;;;;;;;40.92;24.80;;;;;;;;;;8266365;28;20061;-95
2023/06/21 21:10:53;;;;;;;;;;;;;;;;;;;;;
2023/06/21 21:15:13;;;;;;;32.75;23.50;;;;;;;;;;8155163;29;20064;-96
2023/06/21 21:19:26;;;;;;;26.58;19.98;;;;;;;;;;8178311;29;20056;-96
2023/06/21 21:23:32;;;;;;;11.52;7.47;;;;;;;;;;8163678;29;20421;-96
2023/06/21 21:28:03;;;;;;;7.22;4.85;;;;;;;;;;8255552;23;20077;-95
2023/06/21 21:32:08;;;;;;;6.65;4.10;;;;;;;;;;8269644;28;20522;-95
2023/06/21 21:36:14;;;;;;;5.35;3.40;;;;;;;;;;8266239;28;20058;-95
2023/06/21 21:40:20;;;;;;;6.63;2.97;;;;;;;;;;8268876;28;20058;-94
2023/06/21 21:44:25;;;;;;;3.83;1.80;;;;;;;;;;8274554;28;20069;-95
2023/06/21 21:48:29;;;;;;;4.30;2.08;;;;;;;;;;8284983;28;20049;-95
2023/06/21 21:52:35;;;;;;;2.55;1.77;;;;;;;;;;8302250;28;20058;-95
2023/06/21 21:56:39;;;;;;;4.30;2.15;;;;;;;;;;8275241;28;20065;-95
2023/06/21 22:00:46;;;;;;;4.25;2.67;;;;;;;;;;8284272;28;20514;-95
2023/06/21 22:04:50;;;;;;;5.13;2.63;;;;;;;;;;8267778;28;20388;-94
2023/06/21 22:09:06;;;;;;;7.82;3.47;;;;;;;;;;8265027;28;20062;-95
2023/06/21 22:13:14;;;;;;;7.20;3.75;;;;;;;;;;8270159;28;20061;-94
2023/06/21 22:17:18;;;;;;;6.90;3.63;;;;;;;;;;8274764;28;20050;-95
2023/06/21 22:21:21;;;;;;;4.93;3.70;;;;;;;;;;8286658;28;20446;-95
2023/06/21 22:25:27;;;;;;;6.65;3.90;;;;;;;;;;8272830;28;20062;-96
2023/06/21 22:29:30;;;;;;;7.68;5.10;;;;;;;;;;8272843;28;20055;-94
2023/06/21 22:33:36;;;;;;;8.35;5.07;;;;;;;;;;8272754;28;20050;-95
2023/06/21 22:37:42;;;;;;;9.90;6.40;;;;;;;;;;8276819;28;20069;-95
2023/06/21 22:41:49;;;;;;;10.80;5.93;;;;;;;;;;8260105;28;20054;-94
2023/06/21 22:45:54;;;;;;;13.23;7.07;;;;;;;;;;8285920;28;20058;-95
2023/06/21 22:49:57;;;;;;;10.77;6.80;;;;;;;;;;8246894;28;20070;-96
2023/06/21 22:54:04;;;;;;;13.73;7.18;;;;;;;;;;8278946;28;20058;-95
2023/06/21 22:58:14;;;;;;;17.38;9.25;;;;;;;;;;8278797;28;20538;-96
2023/06/21 23:02:28;;;;;;;19.58;10.43;;;;;;;;;;8263106;28;20049;-96
2023/06/21 23:06:34;;;;;;;15.38;9.30;;;;;;;;;;8277741;28;20054;-96
2023/06/21 23:10:42;;;;;;;16.73;10.73;;;;;;;;;;8283236;28;20100;-96
2023/06/21 23:14:47;;;;;;;17.05;11.07;;;;;;;;;;8307627;28;20046;-96
2023/06/21 23:18:56;;;;;;;16.67;10.82;;;;;;;;;;8285592;28;20530;-96
2023/06/21 23:23:14;;;;;;;17.30;11.13;;;;;;;;;;8275098;28;20053;-96
2023/06/21 23:32:02;;;;;;;17.05;10.75;;;;;;;;;;8284641;23;20054;-96
2023/06/21 23:36:32;;;;;;;18.75;11.80;;;;;;;;;;8264784;28;20041;-96
2023/06/21 23:40:41;;;;;;;15.85;11.27;;;;;;;;;;8325252;23;20146;-96
2023/06/21 23:44:48;;;;;;;18.88;11.73;;;;;;;;;;8236616;28;20066;-95
2023/06/21 23:49:13;;;;;;;20.40;11.82;;;;;;;;;;8218382;28;20062;-96
2023/06/21 23:53:17;;;;;;;20.15;12.77;;;;;;;;;;8211477;28;20066;-95
2023/06/21 23:57:22;;;;;;;18.02;11.13;;;;;;;;;;8243767;28;20101;-96
